METAR Data

Data at: 2158 UTC 01 Dec 2021

METAR for:KMLT (Millinocket Muni, ME, US)
Text:KMLT 012153Z AUTO 27006KT 10SM BKN043 00/M08 A3004 RMK AO2 SLP183 T00001083 TSNO
Temperature: 0.0°C ( 32°F)
Dewpoint: -8.3°C ( 17°F) [RH = 54%]
Pressure (altimeter):30.04 inches Hg (1017.4 mb) [Sea level pressure: 1018.3 mb]
Winds:from the W (270 degrees) at 7 MPH (6 knots; 3.1 m/s)
Visibility:10 or more sm (16+ km)
Ceiling:4300 feet AGL
Clouds: broken clouds at 4300 feet AGL
QC Flag:automated observation with no human augmentation